Kezdőlap
METAR-TAF:

METAR-TAF

Repülőterek :

Taos Regional Airport

Taos, Új-Mexikó, Amerikai Egyesült Államok

földrajzi szélesség: 36-27N, földrajzi hosszúság: 105-40W, magasság: 2161 m

Jelenlegi meteorológiai megfigyelések

A jelentés 35 perccel ezelõtt készült, 01:56 UTC
Délkeleti szél 13 kt
Hőmérséklet 21°C
Páratartalom 38%
Légköri nyomás 1026 hPa
Látótávolság: 16.1 km
Derült ég

METAR: KSKX 230156Z AUTO 13013KT 10SM CLR 21/06 A3030 RMK AO2 SLP201 T02110061

Idő: 20:31 (02:31 UTC)


TAF: hiányzik

Meteorológiai megfigyelések és előrejelzések több, mint 4000 repülőtéren (METAR és TAF jelentéseket).

A térképen piros és sárga pontok jelzik az elérhető meteorológiai állomásokat.

Mozgassa az egeret a pont fölött, hogy megjelenjen az állomás neve.

Azután kattintson az időjárási megfigyelések és előrejelzések megtekintéséhez.

A térkép megváltoztatása: kattintson a fekete keresztel jelölt zöld gombra ráközelítéshez, a vonallal jelölt zöld gombra távolításhoz, vagy a zöld nyilakra a szomszédos térképek eléréséhez.


METAR-TAF: